createdAt,value
2019-01-10T06:10:58.776Z,14.30
2019-01-10T06:13:28.051Z,14.80
2019-01-10T06:15:57.461Z,14.80
2019-01-10T06:18:26.315Z,14.90
2019-01-10T06:20:55.474Z,14.90
2019-01-10T06:23:24.284Z,14.90
2019-01-10T06:25:53.697Z,15.00
2019-01-10T06:28:22.568Z,15.00
2019-01-10T06:30:51.683Z,15.00
2019-01-10T06:33:20.746Z,15.00
2019-01-10T06:35:49.871Z,15.10
2019-01-10T06:38:19.308Z,15.10
2019-01-10T06:40:48.141Z,15.10
2019-01-10T06:43:16.920Z,15.10
2019-01-10T06:45:45.906Z,15.20
2019-01-10T06:48:15.440Z,15.20
2019-01-10T06:50:44.591Z,15.20
2019-01-10T06:53:13.413Z,15.30
2019-01-10T06:55:42.922Z,15.30
2019-01-10T06:58:12.451Z,15.30
2019-01-10T07:00:41.565Z,15.30
2019-01-10T07:03:10.707Z,15.40
2019-01-10T07:05:39.411Z,15.40
2019-01-10T07:08:08.477Z,15.40
2019-01-10T07:10:37.699Z,15.50
2019-01-10T07:13:06.405Z,15.50
2019-01-10T07:15:35.272Z,15.50
2019-01-10T07:18:04.373Z,15.60
2019-01-10T07:20:38.455Z,15.70
2019-01-10T07:23:08.128Z,15.70
2019-01-10T07:25:36.622Z,15.70
2019-01-10T07:28:12.223Z,15.80
2019-01-10T07:30:41.426Z,15.80
2019-01-10T07:33:12.596Z,15.80
2019-01-10T07:35:42.120Z,15.90
2019-01-10T07:38:11.220Z,15.90
2019-01-10T07:40:40.716Z,16.10
2019-01-10T07:43:09.453Z,16.20
2019-01-10T07:45:37.920Z,16.30
2019-01-10T07:48:09.399Z,16.50
2019-01-10T07:50:38.148Z,16.60
2019-01-10T07:53:08.344Z,16.80
2019-01-10T07:55:38.043Z,17.00
2019-01-10T07:58:06.812Z,17.10
2019-01-10T08:00:35.530Z,17.30
2019-01-10T08:03:04.448Z,17.50
2019-01-10T08:05:33.709Z,17.60
2019-01-10T08:08:02.545Z,17.80
2019-01-10T08:10:31.383Z,17.90
2019-01-10T08:13:00.147Z,18.00
2019-01-10T08:15:28.904Z,18.10
2019-01-10T08:17:57.663Z,18.20
2019-01-10T08:20:26.552Z,18.30
2019-01-10T08:22:55.309Z,18.40
2019-01-10T08:25:24.011Z,18.50
2019-01-10T08:27:53.303Z,18.60
2019-01-10T08:30:23.799Z,18.70
2019-01-10T08:32:53.830Z,18.70
2019-01-10T08:35:27.927Z,18.80
2019-01-10T08:37:56.768Z,18.90
2019-01-10T08:40:26.048Z,19.00
2019-01-10T08:42:55.411Z,19.10
2019-01-10T08:45:24.465Z,19.10
2019-01-10T08:47:53.901Z,19.20
2019-01-10T08:50:24.705Z,19.30
2019-01-10T08:52:53.606Z,19.40
2019-01-10T08:55:22.456Z,19.40
2019-01-10T08:57:51.350Z,19.50
2019-01-10T09:00:22.171Z,19.60
2019-01-10T09:02:51.459Z,19.60
2019-01-10T09:05:20.559Z,19.70
2019-01-10T09:07:49.700Z,19.70
2019-01-10T09:10:21.969Z,19.80
2019-01-10T09:12:51.388Z,19.80
2019-01-10T09:15:23.615Z,19.90
2019-01-10T09:17:50.172Z,19.90
2019-01-10T09:20:18.904Z,19.90
2019-01-10T09:22:47.727Z,19.90
2019-01-10T09:25:17.805Z,19.90
2019-01-10T09:27:45.420Z,19.80
2019-01-10T09:30:16.706Z,19.80
2019-01-10T09:32:45.652Z,19.80
2019-01-10T09:35:15.276Z,19.70
2019-01-10T09:37:44.405Z,19.70
2019-01-10T09:40:15.272Z,19.70
2019-01-10T09:42:45.237Z,19.70
2019-01-10T09:45:17.025Z,19.70
2019-01-10T09:47:46.052Z,19.60
2019-01-10T09:50:16.394Z,19.60
2019-01-10T09:52:45.454Z,19.60
2019-01-10T09:55:14.175Z,19.50
2019-01-10T10:00:17.322Z,19.50
2019-01-10T10:02:47.282Z,19.50
2019-01-10T10:05:16.590Z,19.50
2019-01-10T10:07:45.742Z,19.40
2019-01-10T10:10:16.724Z,19.40
2019-01-10T10:12:46.415Z,19.40
2019-01-10T10:15:18.543Z,19.40
2019-01-10T10:17:47.764Z,19.40
2019-01-10T10:20:18.754Z,19.30
2019-01-10T10:22:48.031Z,19.30
2019-01-10T10:25:17.517Z,19.30
2019-01-10T10:27:46.661Z,19.30
2019-01-10T10:30:17.551Z,19.30
2019-01-10T10:32:46.763Z,19.20
2019-01-10T10:35:15.632Z,19.20
2019-01-10T10:37:44.510Z,19.20
2019-01-10T10:40:16.524Z,19.20
2019-01-10T10:42:45.299Z,19.20
2019-01-10T10:45:15.741Z,19.20
2019-01-10T10:47:45.869Z,19.20
2019-01-10T10:50:18.030Z,19.10
2019-01-10T10:52:47.893Z,19.10
2019-01-10T10:55:17.029Z,19.10
2019-01-10T10:57:46.356Z,19.10
2019-01-10T11:00:19.535Z,19.10
2019-01-10T11:02:49.026Z,19.10
2019-01-10T11:05:18.584Z,19.10
2019-01-10T11:07:47.407Z,19.00
2019-01-10T11:10:19.103Z,19.00
2019-01-10T11:12:48.408Z,19.00
2019-01-10T11:15:17.985Z,19.00
2019-01-10T11:17:47.623Z,19.00
2019-01-10T11:20:20.057Z,19.00
2019-01-10T11:22:49.471Z,19.00
2019-01-10T11:25:21.901Z,19.00
2019-01-10T11:27:51.215Z,19.00
2019-01-10T11:30:20.385Z,19.00
2019-01-10T11:32:50.399Z,19.00
2019-01-10T11:35:19.623Z,19.00
2019-01-10T11:37:49.191Z,19.00
2019-01-10T11:40:20.728Z,18.90
2019-01-10T11:42:49.818Z,19.00
2019-01-10T11:45:20.948Z,18.90
2019-01-10T11:47:50.899Z,18.90
2019-01-10T11:50:21.333Z,18.90
2019-01-10T11:52:50.106Z,18.90
2019-01-10T11:55:19.391Z,18.90
2019-01-10T11:57:50.666Z,18.90
2019-01-10T12:00:22.861Z,18.90
2019-01-10T12:02:52.099Z,18.90
2019-01-10T12:05:21.187Z,18.90
2019-01-10T12:07:51.099Z,18.90
2019-01-10T12:10:19.890Z,18.80
2019-01-10T12:12:49.501Z,18.90
2019-01-10T12:15:18.187Z,18.80
2019-01-10T12:17:47.607Z,18.80
2019-01-10T12:20:16.756Z,18.80
2019-01-10T12:22:46.022Z,18.90
2019-01-10T12:25:15.859Z,18.90
2019-01-10T12:27:46.734Z,18.80
2019-01-10T12:30:19.196Z,18.80
2019-01-10T12:32:48.355Z,18.80
2019-01-10T12:35:17.184Z,18.80
2019-01-10T12:37:46.804Z,18.80
2019-01-10T12:40:16.644Z,18.80
2019-01-10T12:42:45.528Z,18.80
2019-01-10T12:45:15.740Z,18.90
2019-01-10T12:47:44.505Z,18.80
2019-01-10T12:50:19.080Z,18.90
2019-01-10T12:52:48.370Z,18.90
2019-01-10T12:55:17.479Z,18.90
2019-01-10T12:57:46.486Z,18.90
2019-01-10T13:00:17.099Z,18.90
2019-01-10T13:02:46.772Z,18.90
2019-01-10T13:05:15.576Z,18.90
2019-01-10T13:07:44.537Z,18.90
2019-01-10T13:10:15.555Z,18.90
2019-01-10T13:12:44.774Z,18.90
2019-01-10T13:15:16.604Z,18.90
2019-01-10T13:17:45.507Z,18.90
2019-01-10T13:20:14.563Z,18.90
2019-01-10T13:22:43.291Z,18.90
2019-01-10T13:25:14.619Z,18.90
2019-01-10T13:27:43.849Z,18.90
2019-01-10T13:30:15.489Z,18.90
2019-01-10T13:32:44.618Z,18.90
2019-01-10T13:37:46.159Z,18.90
2019-01-10T13:40:15.852Z,18.90
2019-01-10T13:42:44.910Z,19.00
2019-01-10T13:45:13.835Z,18.90
2019-01-10T13:47:43.157Z,18.90
2019-01-10T13:50:15.831Z,18.90
2019-01-10T13:52:45.173Z,18.90
2019-01-10T13:55:14.657Z,18.90
2019-01-10T13:57:43.480Z,18.90
2019-01-10T14:00:16.280Z,18.90
2019-01-10T14:02:45.658Z,18.90
2019-01-10T14:05:14.748Z,18.90
2019-01-10T14:07:43.561Z,18.90
2019-01-10T14:10:12.413Z,19.00
2019-01-10T14:12:43.332Z,19.00
2019-01-10T14:15:14.794Z,19.00
2019-01-10T14:17:43.590Z,19.00
2019-01-10T14:20:12.664Z,19.00
2019-01-10T14:22:41.478Z,19.00
2019-01-10T14:25:10.264Z,19.00
2019-01-10T14:27:39.066Z,19.10
2019-01-10T14:30:13.611Z,19.10
2019-01-10T14:32:42.639Z,19.10
2019-01-10T14:35:11.362Z,19.10
2019-01-10T14:37:40.981Z,19.10
2019-01-10T14:40:10.167Z,19.10
2019-01-10T14:42:39.596Z,19.10
2019-01-10T14:45:10.812Z,19.10
2019-01-10T14:47:40.018Z,19.10
2019-01-10T14:50:10.265Z,19.10
2019-01-10T14:52:39.439Z,19.20
2019-01-10T14:55:09.648Z,19.20
2019-01-10T14:57:38.707Z,19.20
2019-01-10T15:00:14.393Z,19.20
2019-01-10T15:02:43.446Z,19.20
2019-01-10T15:05:14.152Z,19.20
2019-01-10T15:07:43.011Z,19.20
2019-01-10T15:10:12.168Z,19.20
2019-01-10T15:12:41.957Z,19.20
2019-01-10T15:15:12.500Z,19.20
2019-01-10T15:17:41.335Z,19.20
2019-01-10T15:20:14.477Z,19.20
2019-01-10T15:22:44.204Z,19.20
2019-01-10T15:25:12.965Z,19.20
2019-01-10T15:27:42.092Z,19.20
2019-01-10T15:30:15.201Z,19.20
2019-01-10T15:32:44.435Z,19.20
2019-01-10T15:37:41.937Z,19.20
2019-01-10T15:40:16.765Z,19.20
2019-01-10T15:42:45.882Z,19.20
2019-01-10T15:45:14.644Z,19.20
2019-01-10T15:47:43.560Z,19.20
2019-01-10T15:50:15.024Z,19.20
2019-01-10T15:52:43.909Z,19.20
2019-01-10T15:55:13.569Z,19.20
2019-01-10T15:57:42.765Z,19.10
2019-01-10T16:00:16.452Z,19.10
2019-01-10T16:02:45.446Z,19.10
2019-01-10T16:05:14.326Z,19.10
2019-01-10T16:07:43.048Z,19.10
2019-01-10T16:10:13.799Z,19.00
2019-01-10T16:12:43.249Z,19.00
2019-01-10T16:15:14.671Z,19.00
2019-01-10T16:17:43.416Z,18.90
2019-01-10T16:20:12.441Z,18.90
2019-01-10T16:22:41.633Z,18.90
2019-01-10T16:25:11.356Z,18.80
2019-01-10T16:27:40.087Z,18.80
2019-01-10T16:30:13.546Z,18.80
2019-01-10T16:32:42.704Z,18.70
2019-01-10T16:35:11.608Z,18.70
2019-01-10T16:37:40.924Z,18.70
2019-01-10T16:40:10.202Z,18.60
2019-01-10T16:42:39.420Z,18.60
2019-01-10T16:45:11.694Z,18.60
2019-01-10T16:47:40.721Z,18.50
2019-01-10T16:50:10.781Z,18.50
2019-01-10T16:52:39.922Z,18.50
2019-01-10T16:55:09.670Z,18.40
2019-01-10T16:57:38.804Z,18.40
2019-01-10T17:00:41.606Z,18.40
2019-01-10T17:03:10.622Z,18.40
2019-01-10T17:05:39.359Z,18.30
2019-01-10T17:08:08.533Z,18.30
2019-01-10T17:10:37.291Z,18.30
2019-01-10T17:13:06.671Z,18.20
2019-01-10T17:15:35.503Z,18.20
2019-01-10T17:18:04.686Z,18.20
2019-01-10T17:20:34.008Z,18.20
2019-01-10T17:23:03.511Z,18.10
2019-01-10T17:25:32.194Z,18.10
2019-01-10T17:28:01.215Z,18.10
2019-01-10T17:30:30.997Z,18.10
2019-01-10T17:33:00.718Z,18.10
2019-01-10T17:35:31.781Z,18.00
2019-01-10T17:38:01.487Z,18.00
2019-01-10T17:40:30.506Z,18.00
2019-01-10T17:42:59.653Z,18.00
2019-01-10T17:45:30.815Z,18.00
2019-01-10T17:47:59.987Z,17.90
2019-01-10T17:50:29.072Z,17.90
2019-01-10T17:52:58.180Z,17.90
2019-01-10T17:55:27.275Z,17.90
2019-01-10T17:57:56.012Z,17.90
2019-01-10T18:00:27.972Z,17.90
2019-01-10T18:02:56.968Z,17.90
2019-01-10T18:05:25.792Z,17.80
2019-01-10T18:07:54.833Z,17.80
2019-01-10T18:10:24.306Z,17.80
2019-01-10T18:12:53.224Z,17.80
2019-01-10T18:15:23.305Z,17.80
2019-01-10T18:17:52.191Z,17.70
2019-01-10T18:20:26.303Z,17.70
2019-01-10T18:22:55.625Z,17.70
2019-01-10T18:25:24.725Z,17.70
2019-01-10T18:27:53.815Z,17.70
2019-01-10T18:30:23.237Z,17.70
2019-01-10T18:32:52.611Z,17.70
2019-01-10T18:35:26.177Z,17.60
2019-01-10T18:37:53.007Z,17.60
2019-01-10T18:40:20.907Z,17.60
2019-01-10T18:42:50.459Z,17.60
2019-01-10T18:45:22.262Z,17.60
2019-01-10T18:47:57.039Z,17.60
2019-01-10T18:50:22.372Z,17.60
2019-01-10T18:52:52.011Z,17.60
2019-01-10T18:55:21.306Z,17.60
2019-01-10T18:57:50.441Z,17.60
2019-01-10T19:00:22.416Z,17.50
2019-01-10T19:02:52.627Z,17.50
2019-01-10T19:05:21.685Z,17.50
2019-01-10T19:07:51.288Z,17.50
2019-01-10T19:10:23.277Z,17.50
2019-01-10T19:12:52.556Z,17.60
2019-01-10T19:15:21.587Z,17.60
2019-01-10T19:17:50.739Z,17.60
2019-01-10T19:20:22.171Z,17.60
2019-01-10T19:22:51.798Z,17.60
2019-01-10T19:25:21.540Z,17.70
2019-01-10T19:30:22.031Z,17.70
2019-01-10T19:32:51.031Z,17.70
2019-01-10T19:35:20.398Z,17.70
2019-01-10T19:37:49.352Z,17.70
2019-01-10T19:40:19.892Z,17.70
2019-01-10T19:42:49.034Z,17.70
2019-01-10T19:45:19.392Z,17.80
2019-01-10T19:47:48.559Z,17.80
2019-01-10T19:50:20.065Z,17.80
2019-01-10T19:52:48.925Z,17.80
2019-01-10T19:57:47.290Z,17.90
2019-01-10T20:00:20.430Z,17.90
2019-01-10T20:02:49.304Z,17.90
2019-01-10T20:05:18.663Z,17.90
2019-01-10T20:07:47.547Z,17.90
2019-01-10T20:10:16.442Z,18.00
2019-01-10T20:12:45.648Z,18.00
2019-01-10T20:15:15.096Z,18.00
2019-01-10T20:17:46.195Z,18.00
2019-01-10T20:20:19.080Z,18.00
2019-01-10T20:22:48.285Z,18.10
2019-01-10T20:25:18.902Z,18.10
2019-01-10T20:27:48.883Z,18.20
2019-01-10T20:30:17.654Z,18.10
2019-01-10T20:32:46.901Z,18.20
2019-01-10T20:35:16.510Z,18.20
2019-01-10T20:37:46.693Z,18.20
2019-01-10T20:40:16.036Z,18.20
2019-01-10T20:42:48.215Z,18.30
2019-01-10T20:45:16.941Z,18.20
2019-01-10T20:47:46.410Z,18.30
2019-01-10T20:52:43.712Z,18.30
2019-01-10T20:55:12.626Z,18.30
2019-01-10T20:57:41.629Z,18.30
2019-01-10T21:00:14.639Z,18.30
2019-01-10T21:02:45.732Z,18.30
2019-01-10T21:05:15.339Z,18.40
2019-01-10T21:07:46.007Z,18.30
2019-01-10T21:10:15.459Z,18.40
2019-01-10T21:12:44.558Z,18.40
2019-01-10T21:15:16.763Z,18.40
2019-01-10T21:17:46.080Z,18.40
2019-01-10T21:22:43.431Z,18.40
2019-01-10T21:25:13.056Z,18.40
2019-01-10T21:27:41.928Z,18.40
2019-01-10T21:30:13.341Z,18.50
2019-01-10T21:32:42.842Z,18.50
2019-01-10T21:35:13.129Z,18.50
2019-01-10T21:37:42.346Z,18.50
2019-01-10T21:40:13.020Z,18.50
2019-01-10T21:42:43.532Z,18.50
2019-01-10T21:45:14.560Z,18.60
2019-01-10T21:47:44.168Z,18.60
2019-01-10T21:50:14.911Z,18.60
2019-01-10T21:52:45.107Z,18.70
2019-01-10T21:55:14.287Z,18.70
